Time;durP1;ratioP1;P1;durP2;ratioP2;P2;SDS_P1;SDS_P2;PMS_P1;PMS_P2;Temp;Humidity;BMP_temperature;BMP_pressure;BME280_temperature;BME280_humidity;BME280_pressure;Samples;Min_cycle;Max_cycle;Signal;HPM_P1;HPM_P2
2023/12/18 00:00:51;;;;;;;;;;;;;;;22.17;29.77;103220.84;4230572;28;19953;-62
2023/12/18 00:02:52;;;;;;;;;;;;;;;22.21;29.38;103216.22;4230159;28;19920;-62
2023/12/18 00:04:54;;;;;;;;;;;;;;;22.22;29.63;103218.81;4230238;28;19923;-62
2023/12/18 00:06:55;;;;;;;;;;;;;;;22.21;29.14;103201.00;4230465;28;19958;-62
2023/12/18 00:08:57;;;;;;;;;;;;;;;22.21;29.63;103203.69;4230219;28;19972;-62
2023/12/18 00:10:59;;;;;;;;;;;;;;;22.20;29.35;103201.97;4230406;28;19920;-63
2023/12/18 00:13:00;;;;;;;;;;;;;;;22.18;29.66;103201.16;4230281;28;20022;-62
2023/12/18 00:15:02;;;;;;;;;;;;;;;22.17;29.65;103199.41;4230619;28;19926;-62
2023/12/18 00:17:03;;;;;;;;;;;;;;;22.14;29.57;103189.69;4233177;28;19973;-62
2023/12/18 00:19:05;;;;;;;;;;;;;;;22.13;29.74;103190.63;4232934;28;19946;-62
2023/12/18 00:21:07;;;;;;;;;;;;;;;22.13;29.62;103193.31;4233211;27;20309;-61
2023/12/18 00:23:09;;;;;;;;;;;;;;;22.16;29.50;103190.50;4233210;28;20454;-62
2023/12/18 00:25:10;;;;;;;;;;;;;;;22.22;29.66;103194.69;4233339;28;20071;-62
2023/12/18 00:27:12;;;;;;;;;;;;;;;22.21;29.63;103190.28;4233257;28;19958;-62
2023/12/18 00:29:13;;;;;;;;;;;;;;;22.21;29.47;103189.41;4232984;28;19930;-62
2023/12/18 00:31:15;;;;;;;;;;;;;;;22.20;29.49;103196.59;4233290;28;19924;-62
2023/12/18 00:33:16;;;;;;;;;;;;;;;22.18;29.58;103201.16;4232822;28;19965;-62
2023/12/18 00:35:18;;;;;;;;;;;;;;;22.16;29.54;103201.22;4233067;28;19927;-62
2023/12/18 00:37:20;;;;;;;;;;;;;;;22.14;29.72;103207.56;4233142;28;19927;-62
2023/12/18 00:39:21;;;;;;;;;;;;;;;22.11;29.44;103205.91;4233243;28;20352;-61
2023/12/18 00:41:23;;;;;;;;;;;;;;;22.10;29.80;103204.19;4232864;28;19923;-61
2023/12/18 00:43:24;;;;;;;;;;;;;;;22.16;29.60;103200.34;4232958;28;19924;-61
2023/12/18 00:45:26;;;;;;;;;;;;;;;22.17;29.33;103204.78;4232931;28;20278;-61
2023/12/18 00:47:27;;;;;;;;;;;;;;;22.20;29.23;103199.28;4233017;27;19924;-62
2023/12/18 00:49:31;;;;;;;;;;;;;;;22.22;29.50;103193.84;4232651;28;20010;-62
2023/12/18 00:51:34;;;;;;;;;;;;;;;22.25;29.52;103191.91;4232920;28;19961;-62
2023/12/18 00:53:35;;;;;;;;;;;;;;;22.23;29.45;103185.72;4232774;28;20014;-62
2023/12/18 00:55:37;;;;;;;;;;;;;;;22.20;29.52;103182.31;4232688;28;19919;-62
2023/12/18 00:57:38;;;;;;;;;;;;;;;22.17;29.40;103178.81;4232618;27;19919;-62
2023/12/18 00:59:41;;;;;;;;;;;;;;;22.16;29.10;103174.44;4232756;28;19920;-62
2023/12/18 01:01:42;;;;;;;;;;;;;;;22.15;29.38;103171.81;4232766;28;19926;-62
2023/12/18 01:03:44;;;;;;;;;;;;;;;22.14;29.41;103168.25;4231965;28;20015;-62
2023/12/18 01:05:45;;;;;;;;;;;;;;;22.18;29.46;103164.50;4232776;28;19923;-62
2023/12/18 01:07:47;;;;;;;;;;;;;;;22.19;29.51;103168.06;4232679;28;20286;-61
2023/12/18 01:09:49;;;;;;;;;;;;;;;22.21;29.45;103157.25;4231180;28;19920;-62
2023/12/18 01:11:51;;;;;;;;;;;;;;;22.21;29.11;103159.94;4232463;28;19934;-62
2023/12/18 01:13:52;;;;;;;;;;;;;;;22.21;29.48;103150.06;4232394;28;19919;-62
2023/12/18 01:15:56;;;;;;;;;;;;;;;22.18;29.43;103153.75;4232447;28;20263;-62
2023/12/18 01:17:57;;;;;;;;;;;;;;;22.16;29.34;103153.00;4232107;28;20394;-62
2023/12/18 01:19:59;;;;;;;;;;;;;;;22.14;29.54;103146.81;4232132;28;20340;-62
2023/12/18 01:22:00;;;;;;;;;;;;;;;22.13;29.54;103152.25;4232035;28;19919;-62
2023/12/18 01:24:02;;;;;;;;;;;;;;;22.11;29.52;103146.94;4231837;28;19965;-62
2023/12/18 01:26:03;;;;;;;;;;;;;;;22.11;29.55;103143.41;4232140;28;19944;-62
2023/12/18 01:28:05;;;;;;;;;;;;;;;22.12;29.60;103151.38;4231382;28;20325;-62
2023/12/18 01:30:08;;;;;;;;;;;;;;;22.15;29.48;103159.28;4232311;28;20390;-62
2023/12/18 01:32:09;;;;;;;;;;;;;;;22.18;29.29;103166.31;4231839;28;20120;-62
2023/12/18 01:34:11;;;;;;;;;;;;;;;22.18;29.35;103159.13;4231795;28;20010;-63
2023/12/18 01:36:12;;;;;;;;;;;;;;;22.18;29.18;103163.63;4232194;28;20035;-62
2023/12/18 01:38:14;;;;;;;;;;;;;;;22.17;29.31;103160.06;4232100;28;19926;-62
2023/12/18 01:40:16;;;;;;;;;;;;;;;22.15;29.48;103164.66;4231972;28;19924;-62
2023/12/18 01:42:17;;;;;;;;;;;;;;;22.13;29.49;103162.97;4231889;28;20322;-62
2023/12/18 01:44:19;;;;;;;;;;;;;;;22.10;29.55;103164.00;4232011;28;19924;-62
2023/12/18 01:46:24;;;;;;;;;;;;;;;22.09;29.50;103159.56;4231265;28;20006;-62
2023/12/18 01:48:26;;;;;;;;;;;;;;;22.12;29.45;103161.25;4231785;28;19931;-62
2023/12/18 01:50:28;;;;;;;;;;;;;;;22.14;29.24;103162.00;4231764;28;20388;-62
2023/12/18 01:52:30;;;;;;;;;;;;;;;22.16;29.34;103169.06;4230652;28;19919;-62
2023/12/18 01:54:32;;;;;;;;;;;;;;;22.17;29.13;103165.41;4231799;28;19920;-63
2023/12/18 01:56:34;;;;;;;;;;;;;;;22.17;29.37;103164.56;4231824;28;19931;-62
2023/12/18 01:58:37;;;;;;;;;;;;;;;22.16;29.31;103165.50;4231723;28;19923;-62
2023/12/18 02:00:38;;;;;;;;;;;;;;;22.15;29.00;103163.75;4231461;28;19924;-62
2023/12/18 02:02:40;;;;;;;;;;;;;;;22.13;29.20;103165.66;4231577;28;19923;-62
2023/12/18 02:04:42;;;;;;;;;;;;;;;22.11;29.44;103168.38;4230490;28;20298;-62
2023/12/18 02:06:45;;;;;;;;;;;;;;;22.09;29.20;103169.41;4231768;28;20384;-62
2023/12/18 02:08:47;;;;;;;;;;;;;;;22.09;29.43;103169.41;4231389;27;19927;-62
2023/12/18 02:10:49;;;;;;;;;;;;;;;22.11;29.15;103168.38;4231462;28;19926;-62
2023/12/18 02:12:50;;;;;;;;;;;;;;;22.15;29.16;103167.31;4231362;27;20371;-62
2023/12/18 02:14:52;;;;;;;;;;;;;;;22.17;29.18;103164.56;4229639;28;20010;-62
2023/12/18 02:16:55;;;;;;;;;;;;;;;22.18;29.21;103171.66;4231186;28;19924;-61
2023/12/18 02:18:56;;;;;;;;;;;;;;;22.18;29.04;103171.66;4231584;28;20047;-62
2023/12/18 02:20:58;;;;;;;;;;;;;;;22.16;29.16;103170.88;4231137;28;19981;-62
2023/12/18 02:22:59;;;;;;;;;;;;;;;22.13;29.26;103171.88;4231046;28;19972;-62
2023/12/18 02:25:01;;;;;;;;;;;;;;;22.11;29.15;103168.38;4230155;28;19920;-62
2023/12/18 02:27:03;;;;;;;;;;;;;;;22.09;29.07;103164.03;4231364;28;19927;-62
2023/12/18 02:29:04;;;;;;;;;;;;;;;22.08;29.28;103160.50;4231229;28;19923;-62
2023/12/18 02:31:07;;;;;;;;;;;;;;;22.09;28.96;103164.94;4230933;28;19963;-61
2023/12/18 02:33:08;;;;;;;;;;;;;;;22.12;29.08;103159.41;4231301;28;19943;-61
2023/12/18 02:35:10;;;;;;;;;;;;;;;22.14;29.20;103160.22;4231024;28;19966;-62
2023/12/18 02:37:12;;;;;;;;;;;;;;;22.15;29.25;103161.06;4231248;28;20297;-62
2023/12/18 02:39:14;;;;;;;;;;;;;;;22.16;28.76;103163.72;4230773;28;19970;-61
2023/12/18 02:41:15;;;;;;;;;;;;;;;22.15;29.24;103161.06;4231155;28;20275;-61
2023/12/18 02:43:16;;;;;;;;;;;;;;;22.14;29.11;103162.00;4231087;28;19924;-61
2023/12/18 02:45:18;;;;;;;;;;;;;;;22.11;28.76;103163.03;4230915;28;20297;-61
2023/12/18 02:47:20;;;;;;;;;;;;;;;22.10;29.11;103163.09;4231034;28;19978;-61
2023/12/18 02:49:21;;;;;;;;;;;;;;;22.07;29.19;103164.13;4230852;28;19920;-61
2023/12/18 02:51:23;;;;;;;;;;;;;;;22.06;29.24;103165.06;4231075;28;19919;-60
2023/12/18 02:53:25;;;;;;;;;;;;;;;22.07;29.19;103156.09;4230906;28;19919;-61
2023/12/18 02:55:26;;;;;;;;;;;;;;;22.09;29.28;103158.69;4231007;28;19935;-61
2023/12/18 02:57:28;;;;;;;;;;;;;;;22.12;28.80;103151.38;4230977;28;19954;-61
2023/12/18 02:59:30;;;;;;;;;;;;;;;22.14;29.06;103156.66;4230590;28;20309;-61
2023/12/18 03:01:31;;;;;;;;;;;;;;;22.15;28.92;103155.72;4231077;28;19938;-62
2023/12/18 03:03:33;;;;;;;;;;;;;;;22.13;29.01;103158.47;4230812;28;19927;-61
2023/12/18 03:05:34;;;;;;;;;;;;;;;22.13;28.92;103152.25;4231120;28;20418;-60
2023/12/18 03:07:36;;;;;;;;;;;;;;;22.10;28.89;103153.28;4229700;28;19984;-60
2023/12/18 03:09:38;;;;;;;;;;;;;;;22.10;28.90;103157.75;4230592;28;19920;-61
2023/12/18 03:11:42;;;;;;;;;;;;;;;22.07;28.89;103156.09;4230688;28;19926;-61
2023/12/18 03:13:44;;;;;;;;;;;;;;;22.07;28.94;103163.25;4230404;28;19919;-61
2023/12/18 03:15:46;;;;;;;;;;;;;;;22.08;29.04;103159.63;4231162;28;20007;-61
2023/12/18 03:17:50;;;;;;;;;;;;;;;22.12;28.96;103159.41;4230527;28;19924;-61
2023/12/18 03:19:51;;;;;;;;;;;;;;;22.13;28.99;103166.53;4230742;28;19958;-62
2023/12/18 03:21:53;;;;;;;;;;;;;;;22.15;28.83;103163.75;4230682;28;19951;-61
2023/12/18 03:23:55;;;;;;;;;;;;;;;22.15;28.87;103167.31;4230563;28;19954;-61
2023/12/18 03:25:57;;;;;;;;;;;;;;;22.13;28.93;103160.31;4230854;28;19951;-61
2023/12/18 03:27:59;;;;;;;;;;;;;;;22.13;28.75;103162.97;4230564;28;20006;-61
2023/12/18 03:30:00;;;;;;;;;;;;;;;22.09;29.02;103153.31;4230795;28;20344;-61
2023/12/18 03:32:03;;;;;;;;;;;;;;;22.07;29.00;103157.91;4229486;28;19923;-61
2023/12/18 03:34:05;;;;;;;;;;;;;;;22.05;29.08;103152.59;4230589;28;19962;-61
2023/12/18 03:36:07;;;;;;;;;;;;;;;22.05;28.96;103154.41;4230652;28;19923;-61
2023/12/18 03:38:09;;;;;;;;;;;;;;;22.07;29.03;103147.19;4230653;28;19972;-60
2023/12/18 03:40:10;;;;;;;;;;;;;;;22.11;28.96;103151.44;4229440;28;19927;-61
2023/12/18 03:42:12;;;;;;;;;;;;;;;22.13;28.68;103147.75;4230451;28;19919;-61
2023/12/18 03:44:13;;;;;;;;;;;;;;;22.14;28.58;103152.19;4230695;28;19919;-61
2023/12/18 03:46:15;;;;;;;;;;;;;;;22.14;28.94;103148.59;4230632;28;19949;-61
2023/12/18 03:48:17;;;;;;;;;;;;;;;22.11;29.02;103144.28;4230649;28;20008;-61
2023/12/18 03:50:23;;;;;;;;;;;;;;;22.09;28.95;103148.84;4231500;28;19941;-60
2023/12/18 03:52:24;;;;;;;;;;;;;;;22.08;28.69;103157.81;4233759;28;20393;-61
2023/12/18 03:54:26;;;;;;;;;;;;;;;22.06;28.82;103159.69;4232627;28;19934;-62
2023/12/18 03:56:27;;;;;;;;;;;;;;;22.04;29.00;103153.53;4233513;28;19924;-61
2023/12/18 03:58:29;;;;;;;;;;;;;;;21.99;29.16;103143.03;4233782;28;19954;-61
2023/12/18 04:00:31;;;;;;;;;;;;;;;22.10;28.97;103155.06;4233888;28;19920;-62
2023/12/18 04:02:32;;;;;;;;;;;;;;;22.12;29.04;103161.25;4233690;28;19924;-61
2023/12/18 04:04:34;;;;;;;;;;;;;;;22.14;28.93;103159.34;4233761;28;19919;-62
2023/12/18 04:06:36;;;;;;;;;;;;;;;22.13;28.83;103161.16;4233720;28;19919;-61
2023/12/18 04:08:39;;;;;;;;;;;;;;;22.12;28.89;103159.41;4233751;28;19935;-61
2023/12/18 04:10:40;;;;;;;;;;;;;;;22.09;28.88;103156.00;4233559;28;19957;-61
2023/12/18 04:12:47;;;;;;;;;;;;;;;22.09;28.87;103158.69;4233160;28;19924;-61
2023/12/18 04:14:48;;;;;;;;;;;;;;;22.06;28.83;103153.47;4233558;28;19931;-61
2023/12/18 04:16:50;;;;;;;;;;;;;;;22.05;28.95;103149.06;4233426;28;20310;-61
2023/12/18 04:18:51;;;;;;;;;;;;;;;22.04;28.84;103148.16;4233594;28;19932;-61
2023/12/18 04:20:53;;;;;;;;;;;;;;;22.06;28.52;103150.81;4231895;28;19920;-61
2023/12/18 04:22:55;;;;;;;;;;;;;;;22.09;28.85;103150.66;4233142;28;19919;-60
2023/12/18 04:25:01;;;;;;;;;;;;;;;22.11;28.90;103156.81;4233162;27;20358;-61
2023/12/18 04:27:03;;;;;;;;;;;;;;;22.11;28.61;103152.31;4232882;27;19920;-61
2023/12/18 04:29:04;;;;;;;;;;;;;;;22.12;28.38;103150.53;4233205;28;20003;-61
2023/12/18 04:31:06;;;;;;;;;;;;;;;22.12;28.76;103156.72;4233254;28;19919;-61
2023/12/18 04:33:08;;;;;;;;;;;;;;;22.11;28.84;103157.66;4233062;28;20022;-61
2023/12/18 04:35:14;;;;;;;;;;;;;;;22.08;28.81;103148.91;4232839;28;19972;-62
2023/12/18 04:37:16;;;;;;;;;;;;;;;22.06;28.87;103154.34;4232997;28;19958;-61
2023/12/18 04:39:17;;;;;;;;;;;;;;;22.04;28.80;103145.50;4233237;28;19989;-62
2023/12/18 04:41:20;;;;;;;;;;;;;;;22.03;28.92;103149.13;4232653;28;20455;-62
2023/12/18 04:43:21;;;;;;;;;;;;;;;22.04;29.04;103148.16;4233123;28;19926;-61
2023/12/18 04:45:23;;;;;;;;;;;;;;;22.07;28.88;103141.81;4233053;28;19927;-61
2023/12/18 04:47:29;;;;;;;;;;;;;;;22.09;28.85;103143.50;4231901;28;20014;-61
2023/12/18 04:49:31;;;;;;;;;;;;;;;22.10;28.63;103147.03;4232973;28;19927;-61
2023/12/18 04:51:33;;;;;;;;;;;;;;;22.11;28.62;103148.78;4232597;28;19927;-61
2023/12/18 04:53:34;;;;;;;;;;;;;;;22.08;28.84;103149.78;4233028;28;19972;-61
2023/12/18 04:55:36;;;;;;;;;;;;;;;22.07;28.42;103153.41;4232398;28;19919;-61
2023/12/18 04:57:38;;;;;;;;;;;;;;;22.07;28.79;103152.53;4232823;28;20035;-62
2023/12/18 04:59:40;;;;;;;;;;;;;;;22.03;28.56;103151.81;4232825;28;20358;-62
2023/12/18 05:01:41;;;;;;;;;;;;;;;22.01;28.79;103142.97;4232539;28;19926;-61
2023/12/18 05:03:43;;;;;;;;;;;;;;;22.04;28.70;103150.84;4232650;27;19919;-61
2023/12/18 05:05:45;;;;;;;;;;;;;;;22.07;28.61;103149.88;4232548;28;19952;-61
2023/12/18 05:07:46;;;;;;;;;;;;;;;22.07;28.75;103144.50;4232624;28;19958;-61
2023/12/18 05:09:48;;;;;;;;;;;;;;;22.09;28.87;103140.81;4232421;28;19924;-61
2023/12/18 05:11:50;;;;;;;;;;;;;;;22.12;28.70;103139.78;4232654;28;19920;-62
2023/12/18 05:13:51;;;;;;;;;;;;;;;22.09;28.82;103143.50;4232562;28;19919;-61
2023/12/18 05:15:53;;;;;;;;;;;;;;;22.10;28.72;103139.00;4232539;27;20306;-61
2023/12/18 05:17:55;;;;;;;;;;;;;;;22.07;28.75;103136.47;4232355;27;20419;-61
2023/12/18 05:19:56;;;;;;;;;;;;;;;22.04;28.65;103129.41;4232387;28;20404;-61
2023/12/18 05:21:58;;;;;;;;;;;;;;;22.02;28.81;103137.53;4232262;28;19948;-62
2023/12/18 05:23:59;;;;;;;;;;;;;;;22.00;28.91;103136.72;4231771;28;19994;-62
2023/12/18 05:26:01;;;;;;;;;;;;;;;22.01;28.80;103132.25;4232324;28;19949;-61
2023/12/18 05:28:02;;;;;;;;;;;;;;;22.05;28.80;103138.34;4232443;28;19920;-61
2023/12/18 05:30:04;;;;;;;;;;;;;;;22.06;28.59;103134.72;4232215;28;19979;-61
2023/12/18 05:32:06;;;;;;;;;;;;;;;22.08;28.72;103133.72;4232097;27;19926;-61
2023/12/18 05:34:07;;;;;;;;;;;;;;;22.10;28.88;103141.66;4232530;28;20019;-61
2023/12/18 05:36:09;;;;;;;;;;;;;;;22.08;28.51;103139.06;4231935;28;19931;-61
2023/12/18 05:38:11;;;;;;;;;;;;;;;22.07;28.63;103142.69;4231794;28;19926;-62
2023/12/18 05:40:12;;;;;;;;;;;;;;;22.05;28.42;103149.91;4231863;28;19958;-63
2023/12/18 05:42:19;;;;;;;;;;;;;;;22.03;28.66;103151.81;4231956;27;20465;-61
2023/12/18 05:44:20;;;;;;;;;;;;;;;22.02;28.81;103150.06;4232102;28;19981;-61
2023/12/18 05:46:22;;;;;;;;;;;;;;;22.00;28.59;103150.13;4232088;28;19919;-61
2023/12/18 05:48:23;;;;;;;;;;;;;;;22.01;28.80;103143.81;4232295;28;19919;-61
2023/12/18 05:50:26;;;;;;;;;;;;;;;22.04;28.61;103142.81;4232000;28;20386;-61
2023/12/18 05:52:27;;;;;;;;;;;;;;;22.07;28.81;103134.63;4231620;28;19920;-61
2023/12/18 05:54:29;;;;;;;;;;;;;;;22.08;28.54;103133.72;4232008;28;20285;-62
2023/12/18 05:56:30;;;;;;;;;;;;;;;22.10;28.65;103133.63;4231792;28;20329;-62
2023/12/18 05:58:32;;;;;;;;;;;;;;;22.08;28.51;103130.13;4231872;28;20243;-62
2023/12/18 06:00:33;;;;;;;;;;;;;;;22.06;28.64;103135.56;4231853;28;19927;-62
2023/12/18 06:02:35;;;;;;;;;;;;;;;22.03;28.62;103135.72;4231727;28;20392;-62
2023/12/18 06:04:38;;;;;;;;;;;;;;;22.01;28.55;103132.25;4231498;28;19920;-62
2023/12/18 06:06:40;;;;;;;;;;;;;;;21.98;28.74;103130.59;4231808;28;19953;-62
2023/12/18 06:08:41;;;;;;;;;;;;;;;22.00;28.78;103125.16;4231161;28;19930;-62
2023/12/18 06:10:43;;;;;;;;;;;;;;;22.00;28.85;103134.03;4231541;28;20298;-62
2023/12/18 06:12:44;;;;;;;;;;;;;;;22.04;28.54;103132.09;4230910;28;19927;-62
2023/12/18 06:14:47;;;;;;;;;;;;;;;22.06;28.69;103140.09;4231295;28;19924;-62
2023/12/18 06:16:48;;;;;;;;;;;;;;;22.06;28.44;103135.56;4231591;28;19927;-62
2023/12/18 06:18:50;;;;;;;;;;;;;;;22.06;28.53;103135.56;4231502;28;19920;-62
2023/12/18 06:20:52;;;;;;;;;;;;;;;22.05;28.65;103141.00;4231321;28;19989;-62
2023/12/18 06:22:53;;;;;;;;;;;;;;;22.03;28.45;103143.78;4231033;28;19926;-62
2023/12/18 06:24:55;;;;;;;;;;;;;;;22.00;28.51;103144.75;4231294;28;19920;-62
2023/12/18 06:26:56;;;;;;;;;;;;;;;21.98;28.45;103149.34;4231519;28;19919;-62
2023/12/18 06:28:58;;;;;;;;;;;;;;;21.95;28.52;103146.78;4231510;28;20428;-63
2023/12/18 06:30:59;;;;;;;;;;;;;;;21.96;28.92;103147.66;4231446;28;19920;-63
2023/12/18 06:33:01;;;;;;;;;;;;;;;22.01;28.75;103154.53;4231125;28;19919;-62
2023/12/18 06:35:03;;;;;;;;;;;;;;;22.02;28.71;103156.28;4231043;28;19932;-62
2023/12/18 06:37:05;;;;;;;;;;;;;;;22.02;28.53;103147.38;4231070;28;19920;-63
2023/12/18 06:39:06;;;;;;;;;;;;;;;22.04;28.37;103152.66;4231335;28;19927;-62
2023/12/18 06:41:08;;;;;;;;;;;;;;;22.03;28.47;103157.19;4231292;28;19924;-62
2023/12/18 06:43:09;;;;;;;;;;;;;;;22.03;28.60;103159.84;4231180;28;19973;-63
2023/12/18 06:45:11;;;;;;;;;;;;;;;22.01;28.63;103153.69;4231162;28;19932;-62
2023/12/18 06:47:12;;;;;;;;;;;;;;;21.97;28.87;103152.94;4231099;28;19960;-63
2023/12/18 06:49:14;;;;;;;;;;;;;;;21.96;28.67;103153.03;4231191;28;19954;-63
2023/12/18 06:51:16;;;;;;;;;;;;;;;21.96;28.57;103153.88;4230680;28;19920;-62
2023/12/18 06:53:17;;;;;;;;;;;;;;;21.97;28.55;103154.75;4230792;28;19923;-62
2023/12/18 06:55:19;;;;;;;;;;;;;;;22.00;28.44;103154.63;4230685;28;19924;-62
2023/12/18 06:57:20;;;;;;;;;;;;;;;22.04;28.46;103156.22;4231075;28;19942;-63
2023/12/18 06:59:22;;;;;;;;;;;;;;;22.04;28.45;103153.53;4231036;28;19919;-62
2023/12/18 07:01:23;;;;;;;;;;;;;;;22.03;28.56;103154.50;4230925;28;19919;-62
2023/12/18 07:03:25;;;;;;;;;;;;;;;22.03;28.55;103157.19;4230783;28;19955;-62
2023/12/18 07:05:30;;;;;;;;;;;;;;;22.00;28.40;103158.16;4230663;28;20390;-62
2023/12/18 07:07:31;;;;;;;;;;;;;;;21.99;28.44;103160.91;4230740;28;19927;-62
2023/12/18 07:09:33;;;;;;;;;;;;;;;21.96;28.41;103159.25;4229621;28;19920;-63
2023/12/18 07:11:34;;;;;;;;;;;;;;;21.95;28.70;103156.66;4230514;28;19923;-62
2023/12/18 07:13:36;;;;;;;;;;;;;;;21.95;28.62;103170.03;4230824;28;20454;-62
2023/12/18 07:15:37;;;;;;;;;;;;;;;21.96;28.61;103166.44;4230835;28;19955;-62
2023/12/18 07:17:39;;;;;;;;;;;;;;;21.99;28.59;103171.63;4230655;28;19924;-62
2023/12/18 07:19:43;;;;;;;;;;;;;;;22.01;28.58;103169.75;4230437;28;19926;-60
2023/12/18 07:21:45;;;;;;;;;;;;;;;22.02;28.26;103179.53;4230750;28;19919;-60
2023/12/18 07:23:46;;;;;;;;;;;;;;;22.02;28.33;103176.88;4230329;28;19920;-62
2023/12/18 07:25:48;;;;;;;;;;;;;;;22.00;28.50;103184.94;4232552;28;19920;-62
2023/12/18 07:27:49;;;;;;;;;;;;;;;21.99;28.41;103182.34;4234167;28;20018;-63
2023/12/18 07:29:51;;;;;;;;;;;;;;;21.97;28.52;103182.44;4234143;27;20305;-62
2023/12/18 07:31:53;;;;;;;;;;;;;;;21.96;28.77;103179.81;4234196;28;19942;-62
2023/12/18 07:33:54;;;;;;;;;;;;;;;21.95;28.69;103183.44;4233793;28;19919;-63
2023/12/18 07:35:56;;;;;;;;;;;;;;;21.95;28.32;103186.97;4234041;28;20023;-62
2023/12/18 07:37:57;;;;;;;;;;;;;;;21.97;28.54;103190.47;4234049;28;20002;-62
2023/12/18 07:40:00;;;;;;;;;;;;;;;22.00;28.35;103184.09;4234087;28;19924;-62
2023/12/18 07:42:01;;;;;;;;;;;;;;;22.01;28.35;103189.38;4233920;28;19962;-62
2023/12/18 07:44:03;;;;;;;;;;;;;;;22.01;28.47;103194.72;4233932;28;19920;-63
2023/12/18 07:46:04;;;;;;;;;;;;;;;22.01;28.42;103199.25;4234046;28;19959;-62
2023/12/18 07:48:06;;;;;;;;;;;;;;;22.00;28.46;103198.34;4233997;28;19920;-62
2023/12/18 07:50:08;;;;;;;;;;;;;;;21.98;28.47;103202.03;4233599;28;19930;-62
2023/12/18 07:52:10;;;;;;;;;;;;;;;21.96;28.52;103194.06;4233860;28;19951;-62
2023/12/18 07:54:12;;;;;;;;;;;;;;;21.94;28.45;103193.28;4233810;28;19966;-62
2023/12/18 07:56:13;;;;;;;;;;;;;;;21.93;28.65;103194.19;4233522;28;20336;-61
2023/12/18 07:58:15;;;;;;;;;;;;;;;21.94;28.36;103197.78;4233710;28;19920;-62
2023/12/18 08:00:17;;;;;;;;;;;;;;;21.95;28.32;103199.50;4233594;28;19966;-61
2023/12/18 08:02:18;;;;;;;;;;;;;;;21.98;28.38;103197.56;4233708;28;19938;-62
2023/12/18 08:04:20;;;;;;;;;;;;;;;21.99;28.44;103196.63;4233512;28;19930;-62
2023/12/18 08:06:22;;;;;;;;;;;;;;;21.99;28.37;103193.06;4233563;28;19920;-62
2023/12/18 08:08:23;;;;;;;;;;;;;;;21.97;28.42;103193.16;4233592;28;19972;-62
2023/12/18 08:10:25;;;;;;;;;;;;;;;21.97;28.46;103193.16;4233423;28;20398;-63
2023/12/18 08:12:27;;;;;;;;;;;;;;;21.95;28.21;103197.69;4233692;28;19962;-62
2023/12/18 08:14:28;;;;;;;;;;;;;;;21.93;28.44;103194.19;4233590;28;19920;-62
2023/12/18 08:16:30;;;;;;;;;;;;;;;21.91;28.68;103201.47;4233275;28;19923;-62
2023/12/18 08:18:32;;;;;;;;;;;;;;;21.90;28.35;103204.22;4233093;28;19970;-62
2023/12/18 08:20:34;;;;;;;;;;;;;;;21.90;28.60;103197.03;4233446;28;19963;-61
2023/12/18 08:22:35;;;;;;;;;;;;;;;21.94;28.46;103205.81;4233287;28;19920;-62
2023/12/18 08:24:37;;;;;;;;;;;;;;;21.96;28.31;103201.25;4233231;28;20374;-61
2023/12/18 08:26:38;;;;;;;;;;;;;;;21.97;28.20;103194.94;4233448;28;19923;-61
2023/12/18 08:28:44;;;;;;;;;;;;;;;21.94;28.08;103187.91;4233336;28;19977;-62
2023/12/18 08:30:45;;;;;;;;;;;;;;;21.92;28.14;103192.50;4233330;28;20010;-62
2023/12/18 08:32:47;;;;;;;;;;;;;;;21.90;28.17;103194.34;4232724;28;19924;-62
2023/12/18 08:34:50;;;;;;;;;;;;;;;21.86;28.35;103185.59;4231959;28;20344;-63
2023/12/18 08:36:53;;;;;;;;;;;;;;;21.84;28.40;103190.13;4232663;28;19926;-63
2023/12/18 08:38:54;;;;;;;;;;;;;;;21.83;28.47;103187.53;4233070;28;19933;-63
2023/12/18 08:40:56;;;;;;;;;;;;;;;21.83;28.29;103184.84;4233190;28;20038;-62
2023/12/18 08:42:58;;;;;;;;;;;;;;;21.86;28.21;103190.09;4232979;28;19919;-62
2023/12/18 08:44:59;;;;;;;;;;;;;;;21.89;28.27;103183.72;4233171;28;20313;-62
2023/12/18 08:47:02;;;;;;;;;;;;;;;21.92;28.28;103180.88;4232663;28;19919;-62
2023/12/18 08:49:04;;;;;;;;;;;;;;;21.93;28.28;103185.31;4232889;28;19927;-62
2023/12/18 08:51:05;;;;;;;;;;;;;;;21.93;28.09;103180.81;4232983;28;19955;-61
2023/12/18 08:53:07;;;;;;;;;;;;;;;21.93;28.31;103179.94;4233029;28;20289;-62
2023/12/18 08:55:08;;;;;;;;;;;;;;;21.92;28.24;103186.25;4231676;28;20394;-63
2023/12/18 08:57:10;;;;;;;;;;;;;;;21.88;28.20;103179.28;4232794;28;19966;-61
2023/12/18 08:59:11;;;;;;;;;;;;;;;21.87;28.14;103186.44;4232680;28;20398;-61
2023/12/18 09:01:13;;;;;;;;;;;;;;;21.86;28.31;103184.72;4232469;28;19937;-62
2023/12/18 09:03:15;;;;;;;;;;;;;;;21.87;28.24;103178.41;4232739;28;19919;-62
2023/12/18 09:05:17;;;;;;;;;;;;;;;21.91;28.01;103184.50;4232616;28;19920;-62
2023/12/18 09:07:19;;;;;;;;;;;;;;;21.92;28.03;103178.19;4232557;28;20272;-62
2023/12/18 09:09:20;;;;;;;;;;;;;;;21.93;27.93;103172.75;4232650;28;20422;-62
2023/12/18 09:11:22;;;;;;;;;;;;;;;21.94;27.99;103179.88;4232559;28;19919;-62
2023/12/18 09:13:24;;;;;;;;;;;;;;;21.94;28.13;103181.69;4232710;28;19920;-61
2023/12/18 09:15:26;;;;;;;;;;;;;;;21.92;27.95;103172.84;4232375;28;19926;-61
2023/12/18 09:17:28;;;;;;;;;;;;;;;21.90;28.25;103166.72;4232319;28;19920;-62
2023/12/18 09:19:30;;;;;;;;;;;;;;;21.87;28.24;103175.72;4231187;28;20032;-62
2023/12/18 09:21:31;;;;;;;;;;;;;;;21.85;28.20;103180.31;4232310;28;19920;-61
2023/12/18 09:23:33;;;;;;;;;;;;;;;21.83;28.27;103176.81;4232097;28;20279;-62
2023/12/18 09:25:35;;;;;;;;;;;;;;;21.84;27.82;103175.88;4232333;28;19920;-62
2023/12/18 09:27:37;;;;;;;;;;;;;;;21.87;28.28;103178.41;4232211;28;19919;-61
2023/12/18 09:29:38;;;;;;;;;;;;;;;21.90;28.16;103177.44;4232455;28;19941;-62
2023/12/18 09:31:40;;;;;;;;;;;;;;;21.91;28.09;103171.09;4230541;28;19919;-62
2023/12/18 09:33:41;;;;;;;;;;;;;;;21.91;27.91;103166.63;4232257;28;19920;-61
2023/12/18 09:35:43;;;;;;;;;;;;;;;21.92;27.88;103175.53;4232166;28;20378;-62
2023/12/18 09:37:45;;;;;;;;;;;;;;;21.89;27.85;103173.00;4231915;28;19973;-62
2023/12/18 09:39:46;;;;;;;;;;;;;;;21.86;28.17;103176.69;4231902;28;19986;-61
2023/12/18 09:41:48;;;;;;;;;;;;;;;21.83;28.21;103175.00;4232003;28;19923;-62
2023/12/18 09:43:50;;;;;;;;;;;;;;;21.82;28.10;103177.75;4232195;28;20301;-62
2023/12/18 09:45:53;;;;;;;;;;;;;;;21.82;28.18;103175.94;4231583;28;19927;-62
2023/12/18 09:47:54;;;;;;;;;;;;;;;21.84;28.00;103175.88;4229686;28;19920;-62
2023/12/18 09:49:58;;;;;;;;;;;;;;;21.86;27.93;103185.59;4231984;28;19920;-62
2023/12/18 09:52:03;;;;;;;;;;;;;;;21.90;28.09;103190.81;4230705;28;19927;-62
2023/12/18 09:54:05;;;;;;;;;;;;;;;21.91;27.91;103189.84;4231897;28;19924;-61
2023/12/18 09:56:06;;;;;;;;;;;;;;;21.91;27.85;103195.22;4231638;28;19924;-61
2023/12/18 09:58:10;;;;;;;;;;;;;;;21.88;27.78;103190.88;4231759;28;20323;-61
2023/12/18 10:00:12;;;;;;;;;;;;;;;21.86;27.95;103200.78;4231371;28;20030;-61
2023/12/18 10:02:17;;;;;;;;;;;;;;;21.84;28.13;103203.53;4231650;28;19943;-61
2023/12/18 10:04:18;;;;;;;;;;;;;;;21.81;28.08;103195.63;4231828;28;20398;-62
2023/12/18 10:06:20;;;;;;;;;;;;;;;21.81;27.93;103195.63;4231705;28;19919;-62
2023/12/18 10:08:22;;;;;;;;;;;;;;;21.81;28.01;103194.75;4230584;28;19923;-61
2023/12/18 10:10:25;;;;;;;;;;;;;;;21.82;28.04;103194.72;4231719;28;19989;-63
2023/12/18 10:12:27;;;;;;;;;;;;;;;21.85;27.80;103189.19;4231680;28;19919;-62
2023/12/18 10:14:28;;;;;;;;;;;;;;;21.89;27.73;103186.41;4231324;28;20348;-61
2023/12/18 10:16:32;;;;;;;;;;;;;;;21.90;27.82;103188.13;4231597;28;19924;-61
2023/12/18 10:18:33;;;;;;;;;;;;;;;21.87;27.68;103183.75;4231558;28;20271;-62
2023/12/18 10:20:35;;;;;;;;;;;;;;;21.88;27.58;103176.59;4231294;27;19927;-62
2023/12/18 10:22:40;;;;;;;;;;;;;;;21.84;27.73;103175.88;4231413;28;19920;-61
2023/12/18 10:24:43;;;;;;;;;;;;;;;21.83;27.48;103174.13;4231645;28;19919;-62